createdAt,value
2019-02-18T00:01:35.125Z,99.90
2019-02-18T00:04:06.796Z,99.90
2019-02-18T00:06:38.639Z,99.90
2019-02-18T00:09:10.272Z,99.90
2019-02-18T00:11:41.706Z,99.90
2019-02-18T00:14:13.468Z,99.90
2019-02-18T00:16:44.966Z,99.90
2019-02-18T00:19:16.417Z,99.90
2019-02-18T00:21:48.152Z,99.90
2019-02-18T00:24:19.959Z,99.90
2019-02-18T00:26:51.502Z,99.90
2019-02-18T00:29:23.054Z,99.90
2019-02-18T00:31:54.534Z,99.90
2019-02-18T00:34:26.090Z,99.90
2019-02-18T00:36:57.513Z,99.90
2019-02-18T00:39:29.021Z,99.90
2019-02-18T00:42:00.526Z,99.90
2019-02-18T00:44:32.013Z,99.90
2019-02-18T00:47:04.358Z,99.90
2019-02-18T00:49:36.758Z,99.90
2019-02-18T00:52:08.247Z,99.90
2019-02-18T00:54:39.689Z,99.90
2019-02-18T00:57:11.255Z,99.90
2019-02-18T00:59:42.475Z,99.90
2019-02-18T01:02:13.861Z,99.90
2019-02-18T01:04:45.566Z,99.90
2019-02-18T01:07:16.987Z,99.90
2019-02-18T01:09:48.669Z,99.90
2019-02-18T01:12:20.129Z,99.90
2019-02-18T01:14:51.499Z,99.90
2019-02-18T01:17:22.818Z,99.90
2019-02-18T01:19:54.117Z,99.90
2019-02-18T01:22:26.463Z,99.90
2019-02-18T01:24:57.894Z,99.90
2019-02-18T01:27:29.328Z,99.90
2019-02-18T01:30:00.669Z,99.90
2019-02-18T01:32:33.540Z,99.90
2019-02-18T01:35:05.303Z,99.90
2019-02-18T01:37:45.259Z,99.90
2019-02-18T01:40:13.279Z,99.90
2019-02-18T01:42:44.871Z,99.90
2019-02-18T01:45:16.298Z,99.90
2019-02-18T01:47:48.884Z,99.90
2019-02-18T01:50:20.648Z,99.90
2019-02-18T01:52:52.095Z,99.90
2019-02-18T01:55:23.637Z,99.90
2019-02-18T01:57:54.884Z,99.90
2019-02-18T02:00:26.605Z,99.90
2019-02-18T02:02:57.799Z,99.90
2019-02-18T02:05:29.965Z,99.90
2019-02-18T02:08:01.199Z,99.90
2019-02-18T02:10:32.661Z,99.90
2019-02-18T02:13:47.460Z,99.90
2019-02-18T02:16:18.776Z,99.90
2019-02-18T02:18:50.111Z,99.90
2019-02-18T02:21:21.466Z,99.90
2019-02-18T02:23:53.422Z,99.90
2019-02-18T02:26:24.765Z,99.90
2019-02-18T02:28:56.067Z,99.90
2019-02-18T02:31:27.490Z,99.90
2019-02-18T02:33:58.773Z,99.90
2019-02-18T02:36:30.534Z,99.90
2019-02-18T02:39:01.823Z,99.90
2019-02-18T02:41:34.809Z,99.90
2019-02-18T02:44:06.535Z,99.90
2019-02-18T02:46:38.145Z,99.90
2019-02-18T02:49:09.443Z,99.90
2019-02-18T02:51:40.897Z,99.90
2019-02-18T02:54:12.234Z,99.90
2019-02-18T02:56:44.112Z,99.90
2019-02-18T02:59:15.626Z,99.90
2019-02-18T03:01:47.062Z,99.90
2019-02-18T03:04:18.717Z,99.90
2019-02-18T03:06:50.505Z,99.90
2019-02-18T03:09:21.905Z,99.90
2019-02-18T03:11:53.229Z,99.90
2019-02-18T03:14:24.502Z,99.90
2019-02-18T03:16:55.718Z,99.90
2019-02-18T03:19:27.028Z,99.90
2019-02-18T03:21:58.664Z,99.90
2019-02-18T03:24:30.008Z,99.90
2019-02-18T03:27:01.188Z,99.90
2019-02-18T03:30:39.330Z,99.90
2019-02-18T03:33:11.579Z,99.90
2019-02-18T03:35:42.759Z,99.90
2019-02-18T03:38:14.790Z,99.90
2019-02-18T03:40:46.406Z,99.90
2019-02-18T03:43:17.851Z,99.90
2019-02-18T03:45:49.542Z,99.90
2019-02-18T03:48:20.746Z,99.90
2019-02-18T03:50:53.273Z,99.90
2019-02-18T03:53:24.819Z,99.90
2019-02-18T03:55:56.267Z,99.90
2019-02-18T03:58:27.921Z,99.90
2019-02-18T04:00:59.345Z,99.90
2019-02-18T04:03:30.945Z,99.90
2019-02-18T04:06:02.324Z,99.90
2019-02-18T04:08:42.588Z,99.90
2019-02-18T04:11:06.708Z,99.90
2019-02-18T04:13:37.874Z,99.90
2019-02-18T04:16:09.546Z,99.90
2019-02-18T04:18:40.846Z,99.90
2019-02-18T04:21:12.162Z,99.90
2019-02-18T04:23:43.472Z,99.90
2019-02-18T04:26:14.803Z,99.90
2019-02-18T04:28:46.984Z,99.90
2019-02-18T04:31:18.550Z,99.90
2019-02-18T04:33:49.728Z,99.90
2019-02-18T04:36:21.249Z,99.90
2019-02-18T04:38:54.370Z,99.90
2019-02-18T04:41:25.403Z,99.90
2019-02-18T04:43:56.803Z,99.90
2019-02-18T04:46:28.310Z,99.90
2019-02-18T04:48:59.629Z,99.90
2019-02-18T04:51:31.005Z,99.90
2019-02-18T04:54:02.423Z,99.90
2019-02-18T04:56:34.091Z,99.90
2019-02-18T04:59:05.463Z,99.90
2019-02-18T05:01:37.124Z,99.90
2019-02-18T05:04:08.396Z,99.90
2019-02-18T05:06:39.702Z,99.90
2019-02-18T05:09:11.413Z,99.90
2019-02-18T05:11:42.916Z,99.90
2019-02-18T05:14:14.265Z,99.90
2019-02-18T05:16:45.773Z,99.90
2019-02-18T05:19:17.256Z,99.90
2019-02-18T05:21:48.682Z,99.90
2019-02-18T05:24:19.970Z,99.90
2019-02-18T05:26:51.539Z,99.90
2019-02-18T05:29:22.924Z,99.90
2019-02-18T05:31:54.263Z,99.90
2019-02-18T05:34:26.182Z,99.90
2019-02-18T05:36:57.824Z,99.90
2019-02-18T05:39:29.112Z,99.90
2019-02-18T05:42:00.403Z,99.90
2019-02-18T05:44:31.847Z,99.90
2019-02-18T05:47:03.208Z,99.90
2019-02-18T05:49:34.607Z,99.90
2019-02-18T05:52:06.378Z,99.90
2019-02-18T05:54:38.027Z,99.90
2019-02-18T05:57:09.737Z,99.90
2019-02-18T05:59:40.971Z,99.90
2019-02-18T06:02:12.182Z,99.90
2019-02-18T06:04:43.486Z,99.90
2019-02-18T06:07:14.740Z,99.90
2019-02-18T06:09:45.969Z,99.90
2019-02-18T06:12:17.318Z,99.90
2019-02-18T06:14:48.600Z,99.90
2019-02-18T06:17:19.768Z,99.90
2019-02-18T06:19:50.967Z,99.90
2019-02-18T06:22:22.403Z,99.90
2019-02-18T06:24:54.051Z,99.90
2019-02-18T06:27:25.887Z,99.90
2019-02-18T06:29:57.081Z,99.90
2019-02-18T06:32:28.412Z,99.90
2019-02-18T06:34:59.969Z,99.90
2019-02-18T06:37:31.572Z,99.90
2019-02-18T06:40:02.996Z,99.90
2019-02-18T06:42:34.218Z,99.90
2019-02-18T06:45:33.899Z,99.90
2019-02-18T06:48:13.651Z,99.90
2019-02-18T06:50:45.234Z,99.90
2019-02-18T06:53:16.910Z,99.90
2019-02-18T06:55:48.240Z,99.90
2019-02-18T06:58:28.787Z,99.90
2019-02-18T07:01:04.702Z,99.90
2019-02-18T07:04:07.442Z,99.90
2019-02-18T07:07:00.510Z,99.90
2019-02-18T07:09:57.515Z,99.90
2019-02-18T07:12:34.562Z,99.90
2019-02-18T07:15:07.907Z,99.90
2019-02-18T07:17:39.895Z,99.90
2019-02-18T07:20:11.346Z,99.90
2019-02-18T07:22:43.254Z,99.90
2019-02-18T07:25:14.631Z,99.90
2019-02-18T07:27:46.254Z,99.90
2019-02-18T07:30:18.549Z,99.90
2019-02-18T07:32:49.896Z,99.90
2019-02-18T07:35:21.351Z,99.90
2019-02-18T07:37:53.556Z,99.90
2019-02-18T07:40:24.986Z,99.90
2019-02-18T07:42:56.428Z,99.90
2019-02-18T07:45:28.530Z,99.90
2019-02-18T07:48:00.055Z,99.90
2019-02-18T07:50:31.855Z,99.90
2019-02-18T07:53:03.325Z,99.90
2019-02-18T07:55:34.719Z,99.90
2019-02-18T07:58:06.583Z,99.90
2019-02-18T08:00:37.930Z,99.90
2019-02-18T08:03:09.359Z,99.90
2019-02-18T08:05:41.016Z,99.90
2019-02-18T08:08:12.607Z,99.90
2019-02-18T08:10:44.807Z,99.90
2019-02-18T08:13:16.282Z,99.90
2019-02-18T08:15:47.564Z,99.90
2019-02-18T08:18:19.061Z,99.90
2019-02-18T08:20:51.011Z,99.90
2019-02-18T08:23:22.468Z,99.90
2019-02-18T08:25:54.298Z,99.90
2019-02-18T08:28:25.874Z,99.90
2019-02-18T08:30:57.211Z,97.90
2019-02-18T08:33:28.595Z,99.90
2019-02-18T08:36:00.031Z,99.90
2019-02-18T08:38:31.759Z,98.90
2019-02-18T08:41:03.535Z,99.90
2019-02-18T08:43:35.150Z,99.90
2019-02-18T08:46:06.775Z,99.90
2019-02-18T08:48:38.532Z,99.90
2019-02-18T08:51:09.962Z,99.90
2019-02-18T08:53:41.403Z,99.90
2019-02-18T08:56:12.975Z,99.90
2019-02-18T08:58:44.675Z,99.10
2019-02-18T09:01:16.792Z,98.50
2019-02-18T09:03:48.087Z,99.90
2019-02-18T09:06:19.572Z,99.90
2019-02-18T09:08:51.273Z,99.90
2019-02-18T09:11:22.792Z,98.00
2019-02-18T09:13:54.227Z,98.70
2019-02-18T09:16:25.502Z,96.00
2019-02-18T09:18:57.088Z,91.90
2019-02-18T09:21:30.361Z,90.50
2019-02-18T09:24:06.932Z,90.80
2019-02-18T09:26:38.447Z,90.00
2019-02-18T09:29:09.938Z,88.80
2019-02-18T09:31:42.901Z,91.70
2019-02-18T09:34:14.551Z,85.90
2019-02-18T09:36:46.494Z,81.60
2019-02-18T09:39:30.681Z,79.50
2019-02-18T09:41:54.723Z,78.90
2019-02-18T09:44:25.979Z,78.40
2019-02-18T09:46:57.482Z,80.20
2019-02-18T09:49:29.033Z,78.20
2019-02-18T09:52:00.528Z,76.40
2019-02-18T09:54:32.015Z,74.60
2019-02-18T09:57:03.480Z,74.60
2019-02-18T09:59:35.153Z,74.20
2019-02-18T10:02:07.088Z,73.90
2019-02-18T10:04:39.626Z,72.70
2019-02-18T10:07:11.430Z,73.40
2019-02-18T10:09:42.914Z,71.70
2019-02-18T10:12:18.475Z,71.60
2019-02-18T10:14:47.539Z,69.60
2019-02-18T10:17:18.927Z,69.30
2019-02-18T10:19:50.242Z,67.90
2019-02-18T10:22:21.575Z,70.10
2019-02-18T10:24:52.976Z,69.80
2019-02-18T10:27:26.013Z,70.10
2019-02-18T10:29:57.573Z,71.40
2019-02-18T10:32:28.969Z,72.50
2019-02-18T10:35:00.368Z,71.60
2019-02-18T10:37:31.591Z,70.00
2019-02-18T10:40:02.912Z,69.50
2019-02-18T10:42:34.357Z,69.10
2019-02-18T10:45:07.428Z,68.00
2019-02-18T10:47:38.994Z,67.20
2019-02-18T10:50:11.492Z,65.00
2019-02-18T10:52:43.015Z,65.90
2019-02-18T10:55:14.700Z,64.30
2019-02-18T10:57:46.017Z,64.10
2019-02-18T11:00:17.537Z,64.70
2019-02-18T11:02:49.034Z,65.70
2019-02-18T11:05:20.308Z,65.80
2019-02-18T11:07:51.712Z,66.40
2019-02-18T11:10:23.128Z,66.40
2019-02-18T11:12:54.597Z,67.00
2019-02-18T11:15:26.047Z,68.00
2019-02-18T11:17:57.383Z,68.90
2019-02-18T11:20:28.823Z,66.70
2019-02-18T11:23:00.477Z,66.70
2019-02-18T11:25:31.959Z,64.20
2019-02-18T11:28:04.519Z,62.90
2019-02-18T11:30:36.003Z,61.10
2019-02-18T11:33:07.516Z,60.40
2019-02-18T11:35:39.087Z,59.50
2019-02-18T11:38:11.543Z,58.50
2019-02-18T11:40:43.170Z,57.30
2019-02-18T11:43:14.537Z,57.50
2019-02-18T11:45:45.958Z,57.20
2019-02-18T11:48:17.615Z,55.70
2019-02-18T11:50:49.163Z,56.30
2019-02-18T11:53:20.467Z,56.30
2019-02-18T11:55:51.964Z,54.90
2019-02-18T11:58:23.413Z,54.50
2019-02-18T12:00:55.480Z,54.10
2019-02-18T12:03:27.392Z,54.50
2019-02-18T12:05:58.844Z,55.30
2019-02-18T12:08:30.328Z,55.70
2019-02-18T12:11:01.700Z,55.40
2019-02-18T12:13:33.147Z,54.30
2019-02-18T12:16:04.929Z,54.50
2019-02-18T12:18:36.446Z,53.60
2019-02-18T12:21:07.974Z,54.60
2019-02-18T12:23:40.257Z,53.70
2019-02-18T12:26:11.610Z,52.30
2019-02-18T12:28:45.237Z,52.00
2019-02-18T12:31:17.034Z,51.70
2019-02-18T12:33:48.997Z,51.60
2019-02-18T12:36:20.523Z,52.20
2019-02-18T12:38:52.305Z,52.80
2019-02-18T12:41:23.766Z,52.90
2019-02-18T12:43:55.021Z,51.30
2019-02-18T12:46:26.430Z,50.30
2019-02-18T12:48:58.143Z,48.70
2019-02-18T12:51:29.633Z,49.20
2019-02-18T12:54:45.322Z,49.50
2019-02-18T12:56:34.725Z,48.20
2019-02-18T12:59:05.998Z,47.20
2019-02-18T13:01:37.719Z,47.60
2019-02-18T13:04:09.461Z,47.50
2019-02-18T13:06:40.743Z,48.00
2019-02-18T13:09:12.243Z,46.50
2019-02-18T13:11:43.513Z,48.10
2019-02-18T13:14:15.386Z,46.10
2019-02-18T13:16:46.707Z,47.50
2019-02-18T13:19:18.028Z,48.10
2019-02-18T13:21:49.329Z,47.60
2019-02-18T13:24:21.029Z,49.60
2019-02-18T13:26:52.755Z,48.00
2019-02-18T13:29:23.931Z,46.80
2019-02-18T13:31:55.846Z,45.80
2019-02-18T13:34:27.081Z,47.00
2019-02-18T13:36:59.162Z,46.70
2019-02-18T13:39:30.483Z,46.40
2019-02-18T13:42:07.368Z,45.70
2019-02-18T13:44:35.136Z,45.20
2019-02-18T13:47:08.368Z,44.30
2019-02-18T13:49:39.901Z,46.00
2019-02-18T13:52:11.358Z,45.70
2019-02-18T13:54:42.558Z,46.70
2019-02-18T13:57:13.970Z,46.20
2019-02-18T13:59:45.563Z,46.70
2019-02-18T14:02:17.224Z,47.70
2019-02-18T14:04:48.548Z,48.60
2019-02-18T14:07:20.673Z,48.20
2019-02-18T14:09:52.108Z,47.30
2019-02-18T14:12:24.057Z,46.50
2019-02-18T14:14:55.496Z,46.30
2019-02-18T14:17:26.750Z,45.80
2019-02-18T14:19:58.057Z,45.40
2019-02-18T14:22:29.553Z,43.60
2019-02-18T14:25:00.723Z,45.00
2019-02-18T14:27:32.603Z,45.70
2019-02-18T14:30:04.153Z,44.80
2019-02-18T14:32:35.488Z,45.50
2019-02-18T14:35:07.454Z,43.90
2019-02-18T14:37:38.738Z,45.90
2019-02-18T14:40:12.985Z,45.60
2019-02-18T14:42:44.467Z,46.50
2019-02-18T14:45:16.515Z,46.00
2019-02-18T14:47:48.079Z,45.00
2019-02-18T14:50:19.893Z,44.70
2019-02-18T14:52:53.328Z,43.70
2019-02-18T14:55:24.709Z,43.80
2019-02-18T14:57:56.153Z,41.00
2019-02-18T15:00:27.440Z,42.90
2019-02-18T15:02:59.638Z,42.30
2019-02-18T15:05:31.192Z,41.60
2019-02-18T15:08:02.624Z,41.30
2019-02-18T15:10:33.919Z,41.40
2019-02-18T15:13:05.453Z,43.10
2019-02-18T15:15:36.852Z,43.20
2019-02-18T15:18:08.714Z,46.50
2019-02-18T15:20:39.944Z,46.10
2019-02-18T15:23:11.234Z,44.60
2019-02-18T15:25:42.628Z,44.70
2019-02-18T15:28:13.851Z,44.80
2019-02-18T15:30:45.394Z,45.20
2019-02-18T15:33:16.765Z,46.90
2019-02-18T15:35:48.144Z,50.30
2019-02-18T15:38:19.727Z,52.10
2019-02-18T15:40:51.625Z,53.50
2019-02-18T15:43:23.145Z,54.30
2019-02-18T15:45:54.676Z,55.40
2019-02-18T15:48:25.972Z,56.10
2019-02-18T15:50:57.445Z,57.30
2019-02-18T15:53:28.617Z,59.00
2019-02-18T15:56:00.131Z,58.90
2019-02-18T15:58:31.632Z,57.70
2019-02-18T16:01:02.955Z,58.90
2019-02-18T16:03:34.175Z,59.20
2019-02-18T16:06:05.423Z,60.20
2019-02-18T16:08:37.242Z,60.90
2019-02-18T16:11:08.998Z,61.50
2019-02-18T16:13:40.215Z,61.10
2019-02-18T16:16:12.427Z,61.30
2019-02-18T16:18:43.713Z,62.60
2019-02-18T16:21:15.543Z,63.20
2019-02-18T16:23:46.840Z,64.20
2019-02-18T16:26:18.265Z,69.70
2019-02-18T16:28:49.603Z,76.60
2019-02-18T16:31:21.335Z,82.80
2019-02-18T16:33:52.486Z,91.10
2019-02-18T16:36:24.077Z,93.30
2019-02-18T16:38:55.523Z,93.10
2019-02-18T16:41:26.781Z,91.80
2019-02-18T16:43:59.077Z,92.70
2019-02-18T16:46:30.987Z,95.60
2019-02-18T16:49:02.492Z,97.90
2019-02-18T16:51:34.120Z,99.90
2019-02-18T16:54:05.478Z,99.90
2019-02-18T16:56:36.702Z,99.90
2019-02-18T16:59:08.017Z,99.90
2019-02-18T17:01:39.392Z,99.90
2019-02-18T17:04:10.556Z,99.90
2019-02-18T17:06:42.113Z,99.90
2019-02-18T17:09:14.955Z,99.90
2019-02-18T17:11:46.361Z,99.90
2019-02-18T17:14:17.892Z,99.90
2019-02-18T17:16:49.175Z,99.90
2019-02-18T17:19:20.545Z,99.90
2019-02-18T17:21:51.907Z,99.90
2019-02-18T17:24:23.725Z,99.90
2019-02-18T17:26:55.156Z,99.90
2019-02-18T17:29:26.391Z,99.90
2019-02-18T17:31:57.949Z,99.90
2019-02-18T17:34:29.190Z,99.90
2019-02-18T17:37:00.778Z,99.90
2019-02-18T17:39:32.031Z,99.90
2019-02-18T17:42:03.428Z,99.90
2019-02-18T17:44:34.650Z,99.90
2019-02-18T17:47:06.009Z,99.90
2019-02-18T17:49:37.914Z,99.90
2019-02-18T17:52:09.227Z,99.90
2019-02-18T17:54:40.482Z,99.90
2019-02-18T17:57:11.799Z,99.90
2019-02-18T17:59:43.026Z,99.90
2019-02-18T18:02:14.723Z,99.90
2019-02-18T18:04:45.965Z,99.90
2019-02-18T18:07:17.403Z,99.90
2019-02-18T18:09:48.630Z,99.90
2019-02-18T18:12:20.938Z,99.90
2019-02-18T18:14:52.386Z,99.90
2019-02-18T18:17:23.692Z,99.90
2019-02-18T18:19:54.951Z,99.90
2019-02-18T18:22:26.273Z,99.90
2019-02-18T18:24:57.817Z,99.90
2019-02-18T18:27:29.150Z,99.90
2019-02-18T18:30:00.563Z,99.90
2019-02-18T18:32:31.778Z,99.90
2019-02-18T18:35:03.243Z,99.90
2019-02-18T18:37:35.501Z,99.90
2019-02-18T18:40:07.709Z,99.90
2019-02-18T18:42:38.994Z,99.90
2019-02-18T18:45:12.303Z,99.90
2019-02-18T18:47:43.818Z,99.90
2019-02-18T18:50:17.338Z,99.90
2019-02-18T18:52:49.367Z,99.90
2019-02-18T18:55:20.875Z,99.90
2019-02-18T18:58:04.366Z,99.90
2019-02-18T19:00:35.695Z,99.90
2019-02-18T19:03:07.410Z,99.90
2019-02-18T19:05:38.982Z,99.90
2019-02-18T19:08:10.254Z,99.90
2019-02-18T19:10:42.459Z,99.90
2019-02-18T19:13:14.334Z,99.90
2019-02-18T19:15:49.614Z,99.90
2019-02-18T19:18:19.108Z,99.90
2019-02-18T19:20:50.477Z,99.90
2019-02-18T19:23:21.899Z,99.90
2019-02-18T19:25:53.440Z,99.90
2019-02-18T19:28:25.218Z,99.90
2019-02-18T19:30:56.564Z,99.90
2019-02-18T19:33:28.095Z,99.90
2019-02-18T19:35:59.392Z,99.90
2019-02-18T19:38:30.728Z,99.90
2019-02-18T19:41:02.428Z,99.90
2019-02-18T19:43:34.145Z,99.90
2019-02-18T19:46:05.688Z,99.90
2019-02-18T19:48:37.574Z,99.90
2019-02-18T19:51:09.459Z,99.90
2019-02-18T19:53:40.761Z,99.90
2019-02-18T19:56:12.245Z,99.90
2019-02-18T19:58:43.534Z,99.90
2019-02-18T20:01:14.986Z,99.90
2019-02-18T20:03:48.214Z,99.90
2019-02-18T20:06:19.659Z,99.90
2019-02-18T20:08:51.741Z,99.90
2019-02-18T20:11:23.205Z,99.90
2019-02-18T20:13:58.848Z,99.90
2019-02-18T20:16:27.578Z,99.90
2019-02-18T20:18:59.007Z,99.90
2019-02-18T20:21:30.375Z,99.90
2019-02-18T20:24:01.717Z,99.90
2019-02-18T20:26:33.099Z,99.90
2019-02-18T20:29:04.977Z,99.90
2019-02-18T20:31:36.371Z,99.90
2019-02-18T20:34:07.703Z,99.90
2019-02-18T20:36:38.948Z,99.90
2019-02-18T20:39:10.775Z,99.90
2019-02-18T20:41:42.343Z,99.90
2019-02-18T20:44:13.590Z,99.90
2019-02-18T20:46:44.895Z,99.90
2019-02-18T20:49:16.311Z,99.90
2019-02-18T20:51:47.766Z,99.90
2019-02-18T20:54:19.250Z,99.90
2019-02-18T20:56:50.610Z,99.90
2019-02-18T20:59:22.061Z,99.90
2019-02-18T21:01:53.406Z,99.90
2019-02-18T21:04:25.026Z,99.90
2019-02-18T21:06:56.707Z,99.90
2019-02-18T21:09:27.941Z,99.90
2019-02-18T21:11:59.550Z,99.90
2019-02-18T21:14:31.068Z,99.90
2019-02-18T21:17:02.405Z,99.90
2019-02-18T21:19:33.728Z,99.90
2019-02-18T21:22:05.398Z,99.90
2019-02-18T21:24:36.923Z,99.90
2019-02-18T21:27:08.814Z,99.90
2019-02-18T21:29:40.627Z,99.90
2019-02-18T21:32:12.078Z,99.90
2019-02-18T21:34:43.497Z,99.90
2019-02-18T21:37:15.076Z,99.90
2019-02-18T21:39:46.914Z,99.90
2019-02-18T21:42:19.356Z,99.90
2019-02-18T21:44:50.775Z,99.90
2019-02-18T21:47:22.369Z,99.90
2019-02-18T21:49:54.389Z,99.90
2019-02-18T21:52:25.887Z,99.90
2019-02-18T21:54:57.622Z,99.90
2019-02-18T21:57:28.951Z,99.90
2019-02-18T22:00:00.535Z,99.90
2019-02-18T22:02:33.677Z,99.90
2019-02-18T22:05:05.278Z,99.90
2019-02-18T22:07:38.391Z,99.90
2019-02-18T22:10:09.904Z,99.90
2019-02-18T22:12:41.330Z,99.90
2019-02-18T22:15:12.953Z,99.90
2019-02-18T22:17:44.851Z,99.90
2019-02-18T22:20:17.043Z,99.90
2019-02-18T22:22:48.524Z,99.90
2019-02-18T22:25:20.031Z,99.90
2019-02-18T22:27:51.472Z,99.90
2019-02-18T22:30:23.040Z,99.90
2019-02-18T22:32:54.545Z,99.90
2019-02-18T22:35:25.913Z,99.90
2019-02-18T22:37:57.545Z,99.90
2019-02-18T22:40:29.367Z,99.90
2019-02-18T22:43:01.113Z,99.90
2019-02-18T22:45:32.897Z,99.90
2019-02-18T22:48:04.422Z,99.90
2019-02-18T22:50:35.871Z,99.90
2019-02-18T22:53:07.204Z,99.90
2019-02-18T22:55:38.789Z,99.90
2019-02-18T22:58:10.117Z,99.90
2019-02-18T23:01:00.975Z,99.90
2019-02-18T23:03:33.959Z,99.90
2019-02-18T23:06:05.563Z,99.90
2019-02-18T23:08:37.117Z,99.90
2019-02-18T23:11:09.392Z,99.90
2019-02-18T23:13:40.797Z,99.90
2019-02-18T23:16:12.309Z,99.90
2019-02-18T23:18:43.738Z,99.90
2019-02-18T23:21:15.168Z,99.90
2019-02-18T23:23:47.131Z,99.90
2019-02-18T23:26:19.040Z,99.90
2019-02-18T23:28:55.859Z,99.90
2019-02-18T23:31:27.230Z,99.90
2019-02-18T23:34:02.111Z,99.90
2019-02-18T23:36:33.381Z,99.90
2019-02-18T23:39:05.692Z,99.90
2019-02-18T23:41:37.962Z,99.90
2019-02-18T23:44:09.376Z,99.90
2019-02-18T23:46:40.968Z,99.90
2019-02-18T23:49:12.474Z,99.90
2019-02-18T23:51:43.859Z,99.90
2019-02-18T23:54:15.217Z,99.90
2019-02-18T23:56:46.995Z,99.90
2019-02-18T23:59:18.198Z,99.90
